Pagrindinis puslapis
METAR-TAF:

METAR-TAF

Oro uostai :

Kajo Largo del Suras, Kuba

platuma: 21-37N, ilguma: 081-33W, Aukštis: 2 m

Dabartinis oras

Ataskaita buvo paskelbta 52 minutes, ne 07:50 UTC
Vėjas 7 kt iš Rytų/Šiaurės Rytų, svyruoja nuo Šiaurės/Šiaurės Rytų ir Rytų
Temperatūra 24°C
Drėgmė 78%
Slėgis 1016 hPa

METAR: MUCL 100750Z AUTO 07007KT 030V100 24/20 Q1016

Laikas: 03:42 (08:42 UTC)

Prognozė

Ataskaita buvo paskelbta 15 valandos ir 42 minutes, ne 17:00 UTC
Prognozė galioja nuo 09 metu 18 UTC su 10 metu 06 UTC
Vėjas 10 kt iš Rytų/Šiaurės Rytų
Matomumas: 9000 m
Mažai debesys ne aukštis 2000 ft
Tapsmas
nuo 09 metu 20 UTC su 09 metu 21 UTC
Vėjas 3 kt nuo kintamojo kryptimis
Tapsmas
nuo 10 metu 01 UTC su 10 metu 02 UTC
Vėjas 12 kt iš Rytų/Šiaurės Rytų

TAF: MUCL 091700Z 0918/1006 06010KT 9000 FEW020 BECMG 0920/0921 VRB03KT BECMG 1001/1002 06012KT

Orai ataskaitas ir orų prognozės (METAR, TAF).

turimą stotys yra geltonos ir raudonos taškus žemėlapyje.

Perkelti pele per norėdami pamatyti stoties vardą.

Tada spustelėkite, norėdami matyti oro stebėjimo ir prognozės.

Norėdami pakeisti žemėlapį: spustelėkite ant žalios mygtukų su juodo kryžiaus žemyn,; žalią mygtuką su brūkšneliu, jei norite nutolinti; arba žalių rodyklių gretimoms žemėlapius.


METAR-TAF: